Portada
METAR-TAF:

METAR-TAF

Aeroports :

Sibu, Malàisia

latitud: 02-20N, longitud: 111-50E, altitud: 8 m

Observació

L'informe es va fer fa 44 minuts, a les 22:00 UTC
Vent 3 kt amb direcció variable
Temperatura 24°C
Humitat 94%
Pressió 1009 hPa
Visibilitat 10 km o més
Escasses núvols a una alçada de 500 ft
Núvols disperses a una alçada de 1600 ft
Cel ennuvolat a una alçada de 15000 ft

METAR: WBGS 112200Z VRB03KT 9999 FEW005 SCT016 BKN150 24/23 Q1009

Hora: 06:44 (22:44 UTC)

Pronòstic

L'informe es va fer fa 6 hores i 14 minuts, a les 16:30 UTC
Pronòstic vàlid del 11 a les 18 UTC al 12 a les 18 UTC
Vent 5 kt del Sud-Est
Visibilitat 10 km o més
Núvols disperses a una alçada de 1800 ft
Temporalment
l' 12 a les 08 UTC al 12 a les 12 UTC
Vent 8 kt del Nord-Oest
Visibilitat: 5000 m
Núvols disperses a una alçada de 1600 ft
xàfecs de pluja

TAF: WBGS 111630Z 1118/1218 14005KT 9999 SCT018 TEMPO 1208/1212 32008KT 5000 SHRA SCT016

Observacions i pronòstics meteorològics de més de 4000 aeroports (METAR i TAF).

Les estacions disponibles són els punts grocs i vermells al mapa.

Posi el ratolí al punt desitjat per veure el nom de l'estació.

Feu clic per veure les observacions i els pronòstics meteorològics.

Per canviar el mapa: feu clic els botons verds amb una creu de color negre per apropar; al botó verd amb un guió per allunyar la imatge; o en les fletxes verdes per a mapes adjacents.


METAR-TAF: